Pagina principale
METAR-TAF:

METAR-TAF

Aeroporti :

Ilulissat, Groenlandia

latitudine: 69-14N, longitudine: 051-04W, altezza: 29 m

Osservazione

Il bollettino è stato emesso 57 minuti fa, alle 18:50 UTC
Vento 4 kt da direzioni variabili
Temperature 8°C
Umidità 66%
Pressione 1010 hPa
Visibilità 10 km o più
Nuvoloso ad un'altezza di 11000 ft

METAR: BGJN 201850Z VRB04KT 9999 BKN110 08/02 Q1010

Ora: 17:47 (19:47 UTC)

Previsione

Il bollettino è stato emesso 5 ore e 51 minuti fa, alle 13:56 UTC
Previsione valida dal 20 alle 15 UTC al 20 alle 21 UTC
Vento 5 kt da direzioni variabili
Visibilità 10 km o più
Nuvoloso ad un'altezza di 10000 ft
Temporaneamente
dal 20 alle 15 UTC al 20 alle 21 UTC
Nuvoloso ad un'altezza di 8000 ft

TAF: BGJN 201356Z 2015/2021 VRB05KT 9999 BKN100 TEMPO 2015/2021 BKN080

Osservazioni e previsioni meteorologiche di più di 4000 aeroporti (messaggi METAR e TAF).

Le stazioni disponibili sono rappresentate dai dischi gialli e rossi sulla carta.

Puntare il mouse per vedere il nome della stazione.

Clicca sopra per visualizzare le osservazioni e previsioni meteorologiche.

Per cambiare la mappa : fare clic sui pulsanti verdi con una croce nera per ingrandire, il pulsante verde con un trattino per diminuire, o sulla freccia verde per le mappe adiacenti.


METAR-TAF: